createdAt,value
2022-08-26T00:01:53.936Z,99447.13
2022-08-26T00:04:23.762Z,99445.50
2022-08-26T00:06:51.797Z,99446.03
2022-08-26T00:09:19.178Z,99449.31
2022-08-26T00:11:47.281Z,99442.22
2022-08-26T00:14:15.285Z,99437.87
2022-08-26T00:16:47.782Z,99436.81
2022-08-26T00:19:19.774Z,99438.69
2022-08-26T00:21:49.618Z,99445.22
2022-08-26T00:24:18.537Z,99444.69
2022-08-26T00:26:46.063Z,99445.50
2022-08-26T00:29:13.920Z,99444.66
2022-08-26T00:31:42.565Z,99449.31
2022-08-26T00:34:13.029Z,99439.25
2022-08-26T00:36:41.606Z,99446.56
2022-08-26T00:39:10.525Z,99438.69
2022-08-26T00:41:38.857Z,99433.22
2022-08-26T00:44:07.433Z,99434.09
2022-08-26T00:46:36.823Z,99434.63
2022-08-26T00:49:17.427Z,99428.13
2022-08-26T00:51:55.669Z,99425.09
2022-08-26T00:54:26.748Z,99425.94
2022-08-26T00:57:00.693Z,99432.44
2022-08-26T00:59:29.225Z,99428.06
2022-08-26T01:02:02.558Z,99427.00
2022-08-26T01:04:30.565Z,99424.78
2022-08-26T01:06:58.458Z,99429.13
2022-08-26T01:09:26.956Z,99426.16
2022-08-26T01:11:55.516Z,99427.28
2022-08-26T01:14:23.179Z,99428.53
2022-08-26T01:16:50.828Z,99425.34
2022-08-26T01:19:28.306Z,99435.63
2022-08-26T01:22:28.119Z,99431.31
2022-08-26T01:24:58.696Z,99427.69
2022-08-26T01:27:27.305Z,99427.34
2022-08-26T01:30:00.379Z,99424.09
2022-08-26T01:32:28.500Z,99429.63
2022-08-26T01:34:55.911Z,99426.41
2022-08-26T01:37:26.497Z,99425.84
2022-08-26T01:39:56.757Z,99418.75
2022-08-26T01:42:25.178Z,99417.13
2022-08-26T01:44:56.174Z,99429.37
2022-08-26T01:47:24.644Z,99410.06
2022-08-26T01:49:54.205Z,99410.88
2022-08-26T01:52:23.758Z,99420.38
2022-08-26T01:54:55.543Z,99422.00
2022-08-26T01:57:22.968Z,99418.38
2022-08-26T01:59:51.068Z,99417.13
2022-08-26T02:02:18.763Z,99424.97
2022-08-26T02:04:51.045Z,99423.66
2022-08-26T02:07:18.919Z,99418.72
2022-08-26T02:09:49.484Z,99423.59
2022-08-26T02:12:17.426Z,99417.59
2022-08-26T02:14:50.133Z,99414.37
2022-08-26T02:17:21.933Z,99416.41
2022-08-26T02:19:49.442Z,99418.78
2022-08-26T02:22:19.797Z,99423.50
2022-08-26T02:24:49.533Z,99413.84
2022-08-26T02:27:17.881Z,99422.09
2022-08-26T02:29:47.100Z,99418.03
2022-08-26T02:32:18.634Z,99424.53
2022-08-26T02:34:46.082Z,99419.16
2022-08-26T02:37:14.544Z,99422.81
2022-08-26T02:39:45.405Z,99420.16
2022-08-26T02:42:15.431Z,99421.81
2022-08-26T02:44:42.782Z,99417.00
2022-08-26T02:47:13.802Z,99415.09
2022-08-26T02:49:43.012Z,99411.06
2022-08-26T02:52:12.058Z,99422.03
2022-08-26T02:54:39.380Z,99414.25
2022-08-26T02:57:06.781Z,99408.09
2022-08-26T02:59:36.028Z,99417.09
2022-08-26T03:02:03.803Z,99416.03
2022-08-26T03:04:33.482Z,99409.38
2022-08-26T03:07:01.152Z,99410.72
2022-08-26T03:09:28.695Z,99416.44
2022-08-26T03:11:56.127Z,99405.84
2022-08-26T03:14:24.112Z,99409.19
2022-08-26T03:16:53.948Z,99415.22
2022-08-26T03:19:22.483Z,99404.88
2022-08-26T03:21:50.825Z,99405.50
2022-08-26T03:24:19.869Z,99408.91
2022-08-26T03:26:52.171Z,99404.50
2022-08-26T03:29:40.430Z,99409.16
2022-08-26T03:32:08.349Z,99404.09
2022-08-26T03:34:35.998Z,99401.09
2022-08-26T03:37:03.390Z,99396.69
2022-08-26T03:39:32.585Z,99401.59
2022-08-26T03:42:00.426Z,99402.09
2022-08-26T03:44:27.813Z,99399.16
2022-08-26T03:46:55.373Z,99400.59
2022-08-26T03:49:23.024Z,99398.34
2022-08-26T03:51:50.401Z,99401.72
2022-08-26T03:54:17.928Z,99394.03
2022-08-26T03:56:46.526Z,99404.28
2022-08-26T03:59:14.098Z,99399.47
2022-08-26T04:01:41.783Z,99403.81
2022-08-26T04:04:09.520Z,99400.31
2022-08-26T04:06:43.322Z,99393.44
2022-08-26T04:09:14.592Z,99398.97
2022-08-26T04:11:42.905Z,99398.41
2022-08-26T04:14:14.256Z,99400.16
2022-08-26T04:16:45.618Z,99396.69
2022-08-26T04:19:14.376Z,99399.53
2022-08-26T04:21:41.830Z,99398.16
2022-08-26T04:24:12.044Z,99397.31
2022-08-26T04:26:42.849Z,99401.44
2022-08-26T04:29:17.670Z,99399.06
2022-08-26T04:31:45.194Z,99410.22
2022-08-26T04:34:14.185Z,99409.72
2022-08-26T04:36:43.128Z,99407.56
2022-08-26T04:39:12.304Z,99401.69
2022-08-26T04:41:40.163Z,99400.34
2022-08-26T04:44:07.765Z,99400.72
2022-08-26T04:46:35.556Z,99404.25
2022-08-26T04:49:08.371Z,99400.78
2022-08-26T04:51:36.120Z,99403.53
2022-08-26T04:54:06.797Z,99395.84
2022-08-26T04:56:36.860Z,99401.91
2022-08-26T04:59:05.308Z,99405.72
2022-08-26T05:01:38.765Z,99405.19
2022-08-26T05:04:08.213Z,99403.06
2022-08-26T05:06:37.140Z,99400.91
2022-08-26T05:09:05.097Z,99404.16
2022-08-26T05:11:34.074Z,99395.25
2022-08-26T05:14:02.489Z,99400.94
2022-08-26T05:16:30.453Z,99400.66
2022-08-26T05:18:57.837Z,99402.56
2022-08-26T05:21:26.401Z,99400.38
2022-08-26T05:23:57.573Z,99398.72
2022-08-26T05:26:27.263Z,99397.09
2022-08-26T05:28:55.258Z,99406.06
2022-08-26T05:31:27.095Z,99404.63
2022-08-26T05:33:55.976Z,99396.94
2022-08-26T05:36:24.644Z,99402.22
2022-08-26T05:38:55.229Z,99399.53
2022-08-26T05:41:34.629Z,99397.34
2022-08-26T05:44:08.646Z,99404.34
2022-08-26T05:46:36.635Z,99408.59
2022-08-26T05:49:05.009Z,99399.75
2022-08-26T05:51:33.545Z,99398.03
2022-08-26T05:54:03.916Z,99400.59
2022-08-26T05:56:31.734Z,99397.72
2022-08-26T05:58:59.742Z,99398.66
2022-08-26T06:01:27.673Z,99397.91
2022-08-26T06:04:01.362Z,99399.34
2022-08-26T06:06:34.970Z,99395.22
2022-08-26T06:09:04.505Z,99394.56
2022-08-26T06:11:32.571Z,99405.19
2022-08-26T06:14:04.020Z,99401.09
2022-08-26T06:16:34.715Z,99404.13
2022-08-26T06:19:02.914Z,99409.66
2022-08-26T06:21:32.058Z,99404.69
2022-08-26T06:24:27.240Z,99402.53
2022-08-26T06:26:56.461Z,99401.16
2022-08-26T06:29:25.797Z,99395.94
2022-08-26T06:31:53.901Z,99404.38
2022-08-26T06:34:21.281Z,99400.69
2022-08-26T06:36:49.520Z,99403.56
2022-08-26T06:39:20.504Z,99405.28
2022-08-26T06:41:47.992Z,99394.19
2022-08-26T06:44:17.374Z,99405.91
2022-08-26T06:46:45.602Z,99399.87
2022-08-26T06:49:13.425Z,99404.63
2022-08-26T06:51:44.909Z,99399.03
2022-08-26T06:54:12.314Z,99396.84
2022-08-26T06:56:41.708Z,99400.22
2022-08-26T06:59:11.885Z,99392.09
2022-08-26T07:01:44.941Z,99395.22
2022-08-26T07:04:15.437Z,99400.31
2022-08-26T07:06:47.132Z,99399.03
2022-08-26T07:09:14.832Z,99400.41
2022-08-26T07:11:42.209Z,99404.56
2022-08-26T07:14:09.663Z,99393.50
2022-08-26T07:16:38.558Z,99395.44
2022-08-26T07:19:11.087Z,99396.25
2022-08-26T07:21:43.146Z,99408.16
2022-08-26T07:24:11.187Z,99407.19
2022-08-26T07:26:39.140Z,99405.44
2022-08-26T07:29:12.360Z,99400.09
2022-08-26T07:31:42.817Z,99401.31
2022-08-26T07:34:11.257Z,99394.13
2022-08-26T07:36:38.662Z,99395.03
2022-08-26T07:39:06.594Z,99403.03
2022-08-26T07:41:33.989Z,99394.16
2022-08-26T07:44:01.469Z,99401.00
2022-08-26T07:46:30.153Z,99392.81
2022-08-26T07:48:58.018Z,99397.00
2022-08-26T07:51:26.064Z,99395.03
2022-08-26T07:53:54.755Z,99397.66
2022-08-26T07:56:23.243Z,99389.78
2022-08-26T07:58:52.731Z,99396.47
2022-08-26T08:01:21.581Z,99392.44
2022-08-26T08:03:51.623Z,99391.56
2022-08-26T08:06:20.035Z,99397.69
2022-08-26T08:08:47.672Z,99392.41
2022-08-26T08:11:21.077Z,99393.91
2022-08-26T08:13:56.082Z,99388.38
2022-08-26T08:16:25.172Z,99396.78
2022-08-26T08:18:53.593Z,99387.41
2022-08-26T08:21:23.659Z,99387.59
2022-08-26T08:23:52.807Z,99379.72
2022-08-26T08:26:20.180Z,99378.47
2022-08-26T08:28:48.196Z,99376.44
2022-08-26T08:31:52.545Z,99368.72
2022-08-26T08:34:13.098Z,99360.50
2022-08-26T08:36:40.710Z,99357.94
2022-08-26T08:39:08.985Z,99350.63
2022-08-26T08:41:44.902Z,99346.37
2022-08-26T08:44:30.945Z,99330.97
2022-08-26T08:47:03.638Z,99336.44
2022-08-26T08:49:31.254Z,99318.72
2022-08-26T08:52:02.278Z,99319.09
2022-08-26T08:54:31.918Z,99314.44
2022-08-26T08:57:11.109Z,99307.87
2022-08-26T08:59:54.944Z,99298.47
2022-08-26T09:02:38.622Z,99295.56
2022-08-26T09:05:15.502Z,99296.09
2022-08-26T09:07:49.125Z,99292.91
2022-08-26T09:10:59.556Z,99293.06
2022-08-26T09:13:27.587Z,99286.78
2022-08-26T09:16:01.551Z,99282.44
2022-08-26T09:19:06.283Z,99290.56
2022-08-26T09:21:34.123Z,99278.97
2022-08-26T09:24:01.600Z,99287.69
2022-08-26T09:26:30.733Z,99278.66
2022-08-26T09:29:04.302Z,99284.87
2022-08-26T09:31:34.146Z,99280.03
2022-08-26T09:34:17.409Z,99269.34
2022-08-26T09:36:51.319Z,99267.56
2022-08-26T09:39:27.903Z,99260.50
2022-08-26T09:42:28.007Z,99258.19
2022-08-26T09:45:04.529Z,99279.31
2022-08-26T09:48:01.365Z,99280.09
2022-08-26T09:50:34.329Z,99260.69
2022-08-26T09:53:28.648Z,99261.56
2022-08-26T09:56:19.237Z,99259.31
2022-08-26T09:58:47.992Z,99254.53
2022-08-26T10:01:33.629Z,99265.94
2022-08-26T10:04:07.998Z,99271.59
2022-08-26T10:06:39.344Z,99262.84
2022-08-26T10:09:09.829Z,99263.75
2022-08-26T10:11:42.546Z,99253.56
2022-08-26T10:14:14.137Z,99258.78
2022-08-26T10:16:54.616Z,99259.91
2022-08-26T10:19:25.390Z,99243.75
2022-08-26T10:22:20.340Z,99244.81
2022-08-26T10:24:51.944Z,99237.75
2022-08-26T10:28:00.350Z,99253.06
2022-08-26T10:30:32.490Z,99251.63
2022-08-26T10:33:10.961Z,99249.28
2022-08-26T10:35:45.188Z,99241.94
2022-08-26T10:38:16.840Z,99254.03
2022-08-26T10:40:57.993Z,99251.09
2022-08-26T10:43:27.841Z,99261.09
2022-08-26T10:46:05.052Z,99263.53
2022-08-26T10:48:49.246Z,99264.63
2022-08-26T10:51:27.556Z,99270.47
2022-08-26T10:53:58.557Z,99259.59
2022-08-26T10:57:00.329Z,99262.22
2022-08-26T11:00:01.147Z,99286.66
2022-08-26T11:02:37.091Z,99272.81
2022-08-26T11:05:16.300Z,99271.78
2022-08-26T11:07:51.474Z,99269.50
2022-08-26T11:10:19.221Z,99278.56
2022-08-26T11:12:49.176Z,99275.50
2022-08-26T11:15:19.768Z,99266.03
2022-08-26T11:17:52.273Z,99259.72
2022-08-26T11:20:22.234Z,99270.25
2022-08-26T11:22:51.237Z,99271.59
2022-08-26T11:25:19.937Z,99265.25
2022-08-26T11:27:50.731Z,99255.69
2022-08-26T11:30:23.094Z,99254.53
2022-08-26T11:32:55.411Z,99252.19
2022-08-26T11:35:25.740Z,99251.41
2022-08-26T11:38:14.275Z,99251.44
2022-08-26T11:40:41.989Z,99248.72
2022-08-26T11:43:15.211Z,99236.72
2022-08-26T11:45:47.548Z,99238.56
2022-08-26T11:48:21.793Z,99240.56
2022-08-26T11:50:55.886Z,99241.91
2022-08-26T11:53:23.470Z,99232.13
2022-08-26T11:55:54.926Z,99227.09
2022-08-26T11:58:22.895Z,99227.56
2022-08-26T12:00:58.067Z,99221.78
2022-08-26T12:03:36.029Z,99222.63
2022-08-26T12:06:03.764Z,99217.75
2022-08-26T12:08:31.656Z,99215.91
2022-08-26T12:11:08.773Z,99225.47
2022-08-26T12:13:39.176Z,99217.03
2022-08-26T12:16:06.721Z,99206.22
2022-08-26T12:18:37.258Z,99206.88
2022-08-26T12:21:31.486Z,99206.50
2022-08-26T12:24:02.407Z,99201.34
2022-08-26T12:26:37.361Z,99200.03
2022-08-26T12:29:12.833Z,99194.72
2022-08-26T12:31:48.276Z,99199.41
2022-08-26T12:34:18.108Z,99191.78
2022-08-26T12:36:52.963Z,99188.19
2022-08-26T12:39:35.447Z,99183.16
2022-08-26T12:42:12.223Z,99182.69
2022-08-26T12:44:55.568Z,99180.34
2022-08-26T12:47:33.867Z,99179.53
2022-08-26T12:50:20.053Z,99177.87
2022-08-26T12:52:56.855Z,99176.66
2022-08-26T12:55:43.797Z,99168.34
2022-08-26T12:58:28.046Z,99165.22
2022-08-26T13:00:56.805Z,99166.97
2022-08-26T13:03:43.834Z,99162.09
2022-08-26T13:06:31.378Z,99159.56
2022-08-26T13:09:10.853Z,99162.75
2022-08-26T13:11:45.014Z,99149.53
2022-08-26T13:14:23.807Z,99151.22
2022-08-26T13:16:52.165Z,99150.38
2022-08-26T13:19:22.040Z,99140.41
2022-08-26T13:21:56.645Z,99148.22
2022-08-26T13:24:43.283Z,99141.44
2022-08-26T13:27:12.079Z,99136.34
2022-08-26T13:29:39.752Z,99136.09
2022-08-26T13:32:08.357Z,99136.53
2022-08-26T13:34:36.940Z,99130.63
2022-08-26T13:37:04.809Z,99127.53
2022-08-26T13:39:32.232Z,99132.53
2022-08-26T13:42:00.287Z,99136.91
2022-08-26T13:44:27.953Z,99127.03
2022-08-26T13:46:55.347Z,99124.53
2022-08-26T13:49:22.720Z,99122.13
2022-08-26T13:51:50.363Z,99119.00
2022-08-26T13:54:17.782Z,99120.72
2022-08-26T13:56:45.144Z,99115.63
2022-08-26T13:59:12.804Z,99120.94
2022-08-26T14:01:40.274Z,99114.06
2022-08-26T14:04:08.545Z,99114.50
2022-08-26T14:06:36.307Z,99112.78
2022-08-26T14:09:04.327Z,99108.44
2022-08-26T14:11:43.244Z,99106.59
2022-08-26T14:14:19.399Z,99107.63
2022-08-26T14:16:58.862Z,99100.69
2022-08-26T14:19:29.644Z,99105.25
2022-08-26T14:21:57.372Z,99116.69
2022-08-26T14:24:24.816Z,99115.59
2022-08-26T14:26:52.202Z,99115.97
2022-08-26T14:29:19.996Z,99112.97
2022-08-26T14:31:47.831Z,99121.47
2022-08-26T14:34:15.288Z,99114.22
2022-08-26T14:36:43.486Z,99117.81
2022-08-26T14:39:12.294Z,99122.91
2022-08-26T14:41:53.796Z,99121.91
2022-08-26T14:44:25.698Z,99119.75
2022-08-26T14:46:53.244Z,99119.25
2022-08-26T14:49:21.107Z,99109.78
2022-08-26T14:51:48.764Z,99113.19
2022-08-26T14:54:19.176Z,99116.50
2022-08-26T14:56:48.598Z,99114.09
2022-08-26T14:59:35.958Z,99106.63
2022-08-26T15:02:03.998Z,99105.28
2022-08-26T15:04:31.787Z,99107.63
2022-08-26T15:06:59.627Z,99102.50
2022-08-26T15:09:27.919Z,99097.22
2022-08-26T15:11:55.635Z,99094.94
2022-08-26T15:14:23.131Z,99097.25
2022-08-26T15:16:52.276Z,99089.81
2022-08-26T15:19:20.307Z,99098.41
2022-08-26T15:21:47.831Z,99086.94
2022-08-26T15:24:17.307Z,99094.53
2022-08-26T15:26:45.012Z,99098.72
2022-08-26T15:29:12.539Z,99087.41
2022-08-26T15:31:39.966Z,99076.50
2022-08-26T15:34:11.113Z,99080.50
2022-08-26T15:36:44.641Z,99076.09
2022-08-26T15:39:12.659Z,99081.19
2022-08-26T15:41:40.204Z,99075.62
2022-08-26T15:44:07.796Z,99081.19
2022-08-26T15:46:35.712Z,99072.84
2022-08-26T15:49:04.943Z,99076.09
2022-08-26T15:51:34.930Z,99081.63
2022-08-26T15:54:13.323Z,99073.09
2022-08-26T15:56:40.803Z,99072.84
2022-08-26T15:59:08.250Z,99077.16
2022-08-26T16:01:35.966Z,99073.03
2022-08-26T16:04:04.746Z,99069.53
2022-08-26T16:06:33.326Z,99068.75
2022-08-26T16:09:00.928Z,99062.31
2022-08-26T16:11:28.703Z,99068.72
2022-08-26T16:13:56.119Z,99059.41
2022-08-26T16:16:23.655Z,99055.97
2022-08-26T16:18:51.347Z,99056.06
2022-08-26T16:21:21.038Z,99055.50
2022-08-26T16:23:48.435Z,99056.72
2022-08-26T16:26:17.930Z,99050.44
2022-08-26T16:28:45.469Z,99055.31
2022-08-26T16:31:13.093Z,99060.72
2022-08-26T16:33:40.827Z,99062.16
2022-08-26T16:36:08.561Z,99062.22
2022-08-26T16:38:35.950Z,99060.34
2022-08-26T16:41:03.847Z,99062.97
2022-08-26T16:43:31.235Z,99064.19
2022-08-26T16:45:58.711Z,99068.09
2022-08-26T16:48:27.508Z,99065.03
2022-08-26T16:50:55.613Z,99073.81
2022-08-26T16:53:23.298Z,99078.22
2022-08-26T16:55:51.107Z,99078.84
2022-08-26T16:58:18.716Z,99083.69
2022-08-26T17:00:46.119Z,99081.44
2022-08-26T17:03:13.799Z,99072.72
2022-08-26T17:05:41.237Z,99082.56
2022-08-26T17:08:08.848Z,99073.38
2022-08-26T17:10:36.666Z,99084.47
2022-08-26T17:13:04.092Z,99078.47
2022-08-26T17:15:31.564Z,99070.25
2022-08-26T17:17:59.274Z,99076.38
2022-08-26T17:20:26.816Z,99072.97
2022-08-26T17:22:54.725Z,99073.91
2022-08-26T17:25:28.478Z,99080.03
2022-08-26T17:30:25.860Z,99082.56
2022-08-26T17:32:54.549Z,99088.53
2022-08-26T17:35:21.998Z,99086.72
2022-08-26T17:37:49.674Z,99089.22
2022-08-26T17:40:19.602Z,99083.16
2022-08-26T17:42:48.114Z,99088.16
2022-08-26T17:45:15.842Z,99091.94
2022-08-26T17:47:43.532Z,99097.06
2022-08-26T17:50:12.888Z,99095.84
2022-08-26T17:52:40.722Z,99083.75
2022-08-26T17:55:08.811Z,99081.16
2022-08-26T17:57:40.770Z,99095.97
2022-08-26T18:00:20.577Z,99096.97
2022-08-26T18:02:48.229Z,99101.66
2022-08-26T18:05:16.596Z,99104.16
2022-08-26T18:07:44.765Z,99104.31
2022-08-26T18:10:13.988Z,99099.44
2022-08-26T18:12:41.684Z,99108.38
2022-08-26T18:15:10.268Z,99109.59
2022-08-26T18:17:41.748Z,99108.09
2022-08-26T18:20:18.337Z,99105.66
2022-08-26T18:22:46.971Z,99098.19
2022-08-26T18:25:14.580Z,99098.84
2022-08-26T18:27:42.000Z,99096.44
2022-08-26T18:30:16.842Z,99102.31
2022-08-26T18:32:44.495Z,99096.53
2022-08-26T18:35:12.183Z,99098.38
2022-08-26T18:37:39.827Z,99099.28
2022-08-26T18:40:08.445Z,99096.25
2022-08-26T18:42:36.263Z,99101.87
2022-08-26T18:45:07.769Z,99101.66
2022-08-26T18:47:35.342Z,99097.59
2022-08-26T18:50:03.711Z,99104.13
2022-08-26T18:52:31.847Z,99108.16
2022-08-26T18:54:59.483Z,99107.56
2022-08-26T18:57:27.578Z,99106.88
2022-08-26T18:59:55.499Z,99108.59
2022-08-26T19:02:22.990Z,99108.87
2022-08-26T19:04:51.830Z,99104.97
2022-08-26T19:07:20.318Z,99109.81
2022-08-26T19:09:47.788Z,99110.38
2022-08-26T19:12:22.466Z,99119.94
2022-08-26T19:14:54.402Z,99125.34
2022-08-26T19:17:22.663Z,99122.47
2022-08-26T19:19:50.174Z,99127.72
2022-08-26T19:22:17.575Z,99134.41
2022-08-26T19:24:45.188Z,99130.41
2022-08-26T19:27:14.883Z,99121.72
2022-08-26T19:29:42.647Z,99133.16
2022-08-26T19:32:10.258Z,99133.38
2022-08-26T19:34:37.668Z,99129.38
2022-08-26T19:37:06.325Z,99134.41
2022-08-26T19:39:34.121Z,99137.81
2022-08-26T19:42:01.666Z,99141.56
2022-08-26T19:44:47.489Z,99142.78
2022-08-26T19:47:15.563Z,99142.78
2022-08-26T19:49:42.965Z,99139.31
2022-08-26T19:52:11.478Z,99144.12
2022-08-26T19:54:39.563Z,99142.91
2022-08-26T19:57:06.957Z,99145.84
2022-08-26T19:59:36.151Z,99149.75
2022-08-26T20:02:08.519Z,99149.41
2022-08-26T20:04:38.498Z,99146.78
2022-08-26T20:07:05.878Z,99150.53
2022-08-26T20:09:34.169Z,99153.09
2022-08-26T20:12:02.603Z,99149.91
2022-08-26T20:14:29.990Z,99152.25
2022-08-26T20:16:57.468Z,99157.75
2022-08-26T20:19:43.808Z,99158.84
2022-08-26T20:22:11.742Z,99155.56
2022-08-26T20:24:39.513Z,99156.97
2022-08-26T20:27:07.960Z,99160.63
2022-08-26T20:29:36.000Z,99162.16
2022-08-26T20:32:06.073Z,99164.63
2022-08-26T20:34:34.439Z,99171.66
2022-08-26T20:37:02.075Z,99165.78
2022-08-26T20:39:29.930Z,99169.31
2022-08-26T20:41:57.729Z,99181.78
2022-08-26T20:44:25.200Z,99182.56
2022-08-26T20:46:53.034Z,99173.59
2022-08-26T20:49:20.471Z,99174.34
2022-08-26T20:51:50.738Z,99171.75
2022-08-26T20:54:19.415Z,99184.25
2022-08-26T20:56:46.864Z,99191.44
2022-08-26T20:59:14.626Z,99188.25
2022-08-26T21:01:42.785Z,99186.03
2022-08-26T21:04:12.406Z,99189.66
2022-08-26T21:06:39.930Z,99199.72
2022-08-26T21:09:10.734Z,99195.44
2022-08-26T21:11:38.359Z,99194.53
2022-08-26T21:14:06.902Z,99199.97
2022-08-26T21:16:44.057Z,99201.19
2022-08-26T21:19:12.647Z,99206.19
2022-08-26T21:21:40.847Z,99203.09
2022-08-26T21:24:08.762Z,99200.63
2022-08-26T21:26:36.187Z,99203.66
2022-08-26T21:29:03.814Z,99207.38
2022-08-26T21:31:32.303Z,99201.84
2022-08-26T21:33:59.853Z,99203.28
2022-08-26T21:36:27.382Z,99199.88
2022-08-26T21:38:58.892Z,99199.94
2022-08-26T21:41:26.403Z,99193.31
2022-08-26T21:43:57.938Z,99197.28
2022-08-26T21:46:27.235Z,99200.34
2022-08-26T21:49:01.930Z,99196.34
2022-08-26T21:51:31.490Z,99190.47
2022-08-26T21:53:59.285Z,99198.03
2022-08-26T21:56:27.675Z,99198.84
2022-08-26T21:58:55.738Z,99191.00
2022-08-26T22:01:24.276Z,99193.72
2022-08-26T22:03:54.803Z,99199.63
2022-08-26T22:06:23.705Z,99190.97
2022-08-26T22:08:51.311Z,99194.50
2022-08-26T22:11:19.083Z,99192.03
2022-08-26T22:13:46.771Z,99189.72
2022-08-26T22:16:14.431Z,99195.06
2022-08-26T22:18:45.874Z,99191.50
2022-08-26T22:21:27.063Z,99195.19
2022-08-26T22:23:58.367Z,99191.44
2022-08-26T22:26:28.751Z,99185.50
2022-08-26T22:28:59.051Z,99187.56
2022-08-26T22:31:37.410Z,99184.84
2022-08-26T22:34:07.820Z,99186.53
2022-08-26T22:36:35.378Z,99178.41
2022-08-26T22:39:04.794Z,99187.28
2022-08-26T22:41:33.446Z,99179.00
2022-08-26T22:44:04.016Z,99178.66
2022-08-26T22:46:32.995Z,99180.22
2022-08-26T22:49:00.711Z,99182.12
2022-08-26T22:51:28.199Z,99177.22
2022-08-26T22:53:55.591Z,99176.06
2022-08-26T22:56:23.237Z,99178.59
2022-08-26T22:58:50.618Z,99166.06
2022-08-26T23:01:18.091Z,99167.34
2022-08-26T23:03:46.043Z,99168.09
2022-08-26T23:06:13.545Z,99168.25
2022-08-26T23:08:41.981Z,99164.88
2022-08-26T23:11:10.053Z,99162.72
2022-08-26T23:13:37.518Z,99167.34
2022-08-26T23:16:07.250Z,99166.06
2022-08-26T23:18:35.250Z,99162.63
2022-08-26T23:21:02.653Z,99175.69
2022-08-26T23:23:30.060Z,99174.16
2022-08-26T23:25:57.987Z,99170.94
2022-08-26T23:28:26.443Z,99172.91
2022-08-26T23:30:53.877Z,99161.44
2022-08-26T23:33:21.607Z,99162.81
2022-08-26T23:35:49.003Z,99156.25
2022-08-26T23:38:16.783Z,99162.94
2022-08-26T23:40:44.456Z,99153.41
2022-08-26T23:43:11.851Z,99158.09
2022-08-26T23:45:39.571Z,99154.22
2022-08-26T23:48:07.613Z,99147.16
2022-08-26T23:50:53.863Z,99144.69
2022-08-26T23:53:21.991Z,99146.87
2022-08-26T23:55:51.317Z,99147.22
2022-08-26T23:58:19.487Z,99154.06
